createdAt,value
2019-05-07T00:01:23.901Z,3.22
2019-05-07T00:03:54.157Z,3.22
2019-05-07T00:06:25.990Z,3.19
2019-05-07T00:08:56.902Z,3.26
2019-05-07T00:11:27.200Z,3.18
2019-05-07T00:13:57.495Z,3.15
2019-05-07T00:16:27.829Z,3.21
2019-05-07T00:18:58.057Z,3.15
2019-05-07T00:21:28.606Z,3.13
2019-05-07T00:23:58.912Z,3.10
2019-05-07T00:26:29.205Z,3.16
2019-05-07T00:28:59.479Z,3.10
2019-05-07T00:31:29.734Z,3.03
2019-05-07T00:34:00.356Z,2.98
2019-05-07T00:36:39.176Z,2.91
2019-05-07T00:39:28.398Z,2.92
2019-05-07T00:42:05.815Z,2.83
2019-05-07T00:44:56.118Z,2.74
2019-05-07T00:47:26.632Z,2.70
2019-05-07T00:50:03.284Z,2.65
2019-05-07T00:52:33.617Z,2.64
2019-05-07T00:55:03.961Z,2.66
2019-05-07T00:57:34.220Z,2.78
2019-05-07T01:00:04.750Z,2.72
2019-05-07T01:02:35.111Z,2.69
2019-05-07T01:05:05.813Z,2.69
2019-05-07T01:07:36.035Z,2.66
2019-05-07T01:10:07.437Z,2.61
2019-05-07T01:12:37.748Z,2.61
2019-05-07T01:15:08.335Z,2.54
2019-05-07T01:17:38.856Z,2.55
2019-05-07T01:20:09.047Z,2.51
2019-05-07T01:22:39.271Z,2.49
2019-05-07T01:25:09.942Z,2.54
2019-05-07T01:27:42.519Z,2.51
2019-05-07T01:30:13.009Z,2.49
2019-05-07T01:33:02.893Z,2.46
2019-05-07T01:35:52.875Z,2.46
2019-05-07T01:38:23.172Z,2.49
2019-05-07T01:40:53.401Z,2.47
2019-05-07T01:43:23.652Z,2.43
2019-05-07T01:45:53.960Z,2.35
2019-05-07T01:48:24.289Z,2.35
2019-05-07T01:50:54.495Z,2.32
2019-05-07T01:53:24.816Z,2.35
2019-05-07T01:55:55.057Z,2.30
2019-05-07T01:58:27.163Z,2.27
2019-05-07T02:00:57.430Z,2.22
2019-05-07T02:03:38.954Z,2.10
2019-05-07T02:06:18.244Z,2.08
2019-05-07T02:09:03.613Z,2.06
2019-05-07T02:11:39.632Z,2.09
2019-05-07T02:14:09.843Z,2.10
2019-05-07T02:19:38.187Z,2.08
2019-05-07T02:22:08.466Z,1.99
2019-05-07T02:24:38.763Z,1.93
2019-05-07T02:27:08.960Z,1.93
2019-05-07T02:29:39.566Z,1.93
2019-05-07T02:32:13.043Z,1.94
2019-05-07T02:34:44.200Z,1.94
2019-05-07T02:37:17.446Z,1.93
2019-05-07T02:40:06.710Z,1.87
2019-05-07T02:42:36.899Z,1.87
2019-05-07T02:45:28.895Z,1.81
2019-05-07T02:47:59.208Z,1.74
2019-05-07T02:50:43.490Z,1.69
2019-05-07T02:53:44.405Z,1.64
2019-05-07T02:56:14.641Z,1.58
2019-05-07T02:58:44.852Z,1.58
2019-05-07T03:01:15.293Z,1.57
2019-05-07T03:03:45.552Z,1.53
2019-05-07T03:06:15.759Z,1.59
2019-05-07T03:08:47.066Z,1.56
2019-05-07T03:11:17.741Z,1.55
2019-05-07T03:13:48.216Z,1.50
2019-05-07T03:16:35.382Z,1.54
2019-05-07T03:18:53.301Z,1.49
2019-05-07T03:21:23.519Z,1.51
2019-05-07T03:24:13.968Z,1.67
2019-05-07T03:26:46.023Z,1.76
2019-05-07T03:29:19.937Z,1.61
2019-05-07T03:32:18.445Z,1.48
2019-05-07T03:34:58.724Z,1.40
2019-05-07T03:37:35.751Z,1.36
2019-05-07T03:40:03.816Z,1.33
2019-05-07T03:42:34.615Z,1.32
2019-05-07T03:45:33.485Z,1.32
2019-05-07T03:48:17.813Z,1.35
2019-05-07T03:50:48.181Z,1.32
2019-05-07T03:53:18.401Z,1.34
2019-05-07T03:55:48.701Z,1.31
2019-05-07T03:58:19.295Z,1.33
2019-05-07T04:00:49.556Z,1.27
2019-05-07T04:03:24.455Z,1.22
2019-05-07T04:05:53.713Z,1.25
2019-05-07T04:08:24.109Z,1.24
2019-05-07T04:10:54.459Z,1.25
2019-05-07T04:13:25.152Z,1.26
2019-05-07T04:15:55.494Z,1.20
2019-05-07T04:18:26.353Z,1.15
2019-05-07T04:20:56.644Z,1.22
2019-05-07T04:23:27.283Z,1.25
2019-05-07T04:26:15.498Z,1.29
2019-05-07T04:28:54.174Z,1.35
2019-05-07T04:31:26.459Z,1.36
2019-05-07T04:33:59.097Z,1.43
2019-05-07T04:36:34.164Z,1.51
2019-05-07T04:39:04.902Z,1.47
2019-05-07T04:41:35.297Z,1.42
2019-05-07T04:44:05.748Z,1.42
2019-05-07T04:46:36.052Z,1.44
2019-05-07T04:49:17.605Z,1.44
2019-05-07T04:51:53.852Z,1.52
2019-05-07T04:54:24.079Z,1.51
2019-05-07T04:56:54.746Z,1.60
2019-05-07T04:59:25.486Z,1.62
2019-05-07T05:02:04.189Z,1.69
2019-05-07T05:04:35.190Z,1.79
2019-05-07T05:07:05.468Z,1.88
2019-05-07T05:09:37.124Z,1.94
2019-05-07T05:12:07.371Z,2.01
2019-05-07T05:14:37.613Z,2.13
2019-05-07T05:17:07.837Z,2.24
2019-05-07T05:19:38.345Z,2.40
2019-05-07T05:22:43.250Z,2.56
2019-05-07T05:25:24.414Z,2.68
2019-05-07T05:27:54.756Z,2.78
2019-05-07T05:30:47.084Z,2.89
2019-05-07T05:33:18.083Z,3.21
2019-05-07T05:35:48.369Z,3.21
2019-05-07T05:38:18.926Z,3.39
2019-05-07T05:40:49.135Z,3.48
2019-05-07T05:43:32.066Z,3.60
2019-05-07T05:46:03.378Z,3.68
2019-05-07T05:48:33.619Z,3.79
2019-05-07T05:51:22.794Z,3.90
2019-05-07T05:54:07.899Z,4.04
2019-05-07T05:56:56.408Z,4.10
2019-05-07T05:59:52.134Z,4.27
2019-05-07T06:02:47.287Z,4.35
2019-05-07T06:05:41.610Z,4.64
2019-05-07T06:08:32.560Z,4.87
2019-05-07T06:11:25.108Z,5.08
2019-05-07T06:14:17.441Z,5.28
2019-05-07T06:16:54.250Z,5.34
2019-05-07T06:19:30.142Z,5.33
2019-05-07T06:22:26.213Z,5.32
2019-05-07T06:25:14.842Z,5.34
2019-05-07T06:27:45.563Z,5.39
2019-05-07T06:30:17.351Z,5.49
2019-05-07T06:32:47.947Z,5.66
2019-05-07T06:35:19.475Z,5.99
2019-05-07T06:37:52.013Z,6.33
2019-05-07T06:40:37.835Z,6.91
2019-05-07T06:43:17.533Z,7.49
2019-05-07T06:45:51.880Z,7.74
2019-05-07T06:48:37.721Z,8.09
2019-05-07T06:50:57.554Z,8.33
2019-05-07T06:53:29.108Z,8.14
2019-05-07T06:56:02.845Z,8.09
2019-05-07T06:58:52.660Z,8.16
2019-05-07T07:01:37.720Z,8.23
2019-05-07T07:04:13.315Z,8.25
2019-05-07T07:07:22.474Z,8.37
2019-05-07T07:10:02.956Z,8.58
2019-05-07T07:12:33.436Z,8.60
2019-05-07T07:15:03.963Z,8.53
2019-05-07T07:17:34.196Z,8.49
2019-05-07T07:20:05.557Z,8.52
2019-05-07T07:22:35.769Z,8.50
2019-05-07T07:25:06.780Z,8.28
2019-05-07T07:27:37.388Z,8.43
2019-05-07T07:30:22.927Z,8.62
2019-05-07T07:32:53.653Z,8.70
2019-05-07T07:35:24.070Z,9.03
2019-05-07T07:37:54.663Z,9.24
2019-05-07T07:40:52.659Z,9.66
2019-05-07T07:43:22.214Z,10.19
2019-05-07T07:45:52.647Z,10.79
2019-05-07T07:48:24.924Z,10.87
2019-05-07T07:50:54.894Z,11.17
2019-05-07T07:53:25.165Z,11.38
2019-05-07T07:56:13.201Z,10.99
2019-05-07T07:59:05.375Z,11.30
2019-05-07T08:01:52.973Z,11.39
2019-05-07T08:04:23.625Z,11.75
2019-05-07T08:07:03.269Z,12.06
2019-05-07T08:09:35.888Z,12.10
2019-05-07T08:12:07.967Z,12.46
2019-05-07T08:14:38.241Z,12.93
2019-05-07T08:17:09.277Z,13.25
2019-05-07T08:19:39.766Z,13.75
2019-05-07T08:22:12.023Z,13.88
2019-05-07T08:24:42.807Z,14.24
2019-05-07T08:27:15.188Z,14.38
2019-05-07T08:29:45.059Z,14.19
2019-05-07T08:32:42.588Z,14.11
2019-05-07T08:35:32.645Z,14.32
2019-05-07T08:38:03.109Z,14.75
2019-05-07T08:40:33.440Z,14.90
2019-05-07T08:43:03.661Z,15.37
2019-05-07T08:45:52.479Z,15.32
2019-05-07T08:48:28.494Z,15.34
2019-05-07T08:50:58.758Z,15.54
2019-05-07T08:53:28.965Z,15.33
2019-05-07T08:55:59.233Z,15.50
2019-05-07T08:58:31.750Z,15.48
2019-05-07T09:01:03.048Z,15.29
2019-05-07T09:03:45.474Z,15.31
2019-05-07T09:06:17.657Z,15.12
2019-05-07T09:08:48.159Z,15.56
2019-05-07T09:11:18.523Z,15.96
2019-05-07T09:13:48.775Z,16.35
2019-05-07T09:16:19.013Z,16.41
2019-05-07T09:18:50.300Z,16.20
2019-05-07T09:21:22.688Z,16.39
2019-05-07T09:23:52.695Z,15.40
2019-05-07T09:26:28.661Z,15.40
2019-05-07T09:29:14.503Z,15.53
2019-05-07T09:32:03.077Z,15.60
2019-05-07T09:34:37.759Z,16.11
2019-05-07T09:37:10.004Z,16.27
2019-05-07T09:39:42.738Z,15.92
2019-05-07T09:42:13.157Z,15.87
2019-05-07T09:44:43.350Z,16.11
2019-05-07T09:47:13.611Z,16.33
2019-05-07T09:49:43.960Z,16.85
2019-05-07T09:52:14.264Z,17.36
2019-05-07T09:54:44.518Z,17.55
2019-05-07T09:57:27.679Z,17.12
2019-05-07T09:59:47.991Z,17.48
2019-05-07T10:02:18.603Z,18.04
2019-05-07T10:04:49.915Z,18.37
2019-05-07T10:07:22.308Z,18.57
2019-05-07T10:09:52.614Z,19.13
2019-05-07T10:12:32.963Z,18.68
2019-05-07T10:15:03.646Z,18.63
2019-05-07T10:18:01.855Z,18.74
2019-05-07T10:20:33.711Z,19.45
2019-05-07T10:23:04.025Z,20.07
2019-05-07T10:25:40.327Z,19.63
2019-05-07T10:28:12.544Z,20.79
2019-05-07T10:30:42.948Z,20.24
2019-05-07T10:33:13.220Z,20.55
2019-05-07T10:35:43.558Z,20.88
2019-05-07T10:38:14.066Z,20.18
2019-05-07T10:40:44.800Z,20.13
2019-05-07T10:43:15.422Z,20.26
2019-05-07T10:46:03.881Z,20.97
2019-05-07T10:48:51.576Z,21.63
2019-05-07T10:51:21.912Z,21.57
2019-05-07T10:53:52.269Z,22.53
2019-05-07T10:56:22.539Z,22.52
2019-05-07T10:58:53.211Z,22.63
2019-05-07T11:01:32.873Z,22.31
2019-05-07T11:04:03.182Z,22.70
2019-05-07T11:06:33.449Z,23.43
2019-05-07T11:09:04.595Z,23.66
2019-05-07T11:11:36.753Z,23.33
2019-05-07T11:14:07.048Z,24.10
2019-05-07T11:16:44.288Z,24.40
2019-05-07T11:19:14.652Z,24.58
2019-05-07T11:21:44.928Z,24.39
2019-05-07T11:24:15.144Z,23.94
2019-05-07T11:26:45.381Z,24.20
2019-05-07T11:29:16.274Z,25.50
2019-05-07T11:31:46.488Z,25.28
2019-05-07T11:34:16.829Z,25.16
2019-05-07T11:36:47.542Z,25.77
2019-05-07T11:39:18.080Z,25.78
2019-05-07T11:42:06.201Z,24.58
2019-05-07T11:44:36.751Z,26.33
2019-05-07T11:47:22.527Z,26.24
2019-05-07T11:50:14.369Z,25.74
2019-05-07T11:52:45.902Z,26.97
2019-05-07T11:55:16.473Z,27.02
2019-05-07T11:57:46.673Z,26.56
2019-05-07T12:00:34.506Z,26.12
2019-05-07T12:03:06.481Z,26.38
2019-05-07T12:05:36.804Z,26.81
2019-05-07T12:08:07.003Z,27.73
2019-05-07T12:10:37.252Z,28.53
2019-05-07T12:13:07.878Z,27.88
2019-05-07T12:15:38.536Z,28.16
2019-05-07T12:18:08.785Z,29.08
2019-05-07T12:20:40.564Z,28.05
2019-05-07T12:23:12.183Z,27.57
2019-05-07T12:25:42.623Z,27.82
2019-05-07T12:28:13.412Z,28.30
2019-05-07T12:31:03.393Z,29.45
2019-05-07T12:34:07.817Z,29.94
2019-05-07T12:36:38.207Z,30.28
2019-05-07T12:39:10.012Z,29.00
2019-05-07T12:41:41.891Z,29.81
2019-05-07T12:44:13.137Z,30.92
2019-05-07T12:46:43.538Z,31.25
2019-05-07T12:49:13.815Z,31.31
2019-05-07T12:52:02.407Z,31.81
2019-05-07T12:54:52.466Z,31.90
2019-05-07T12:57:22.838Z,31.78
2019-05-07T12:59:54.139Z,31.95
2019-05-07T13:02:49.611Z,32.50
2019-05-07T13:05:21.992Z,31.75
2019-05-07T13:07:54.326Z,31.59
2019-05-07T13:10:25.585Z,31.75
2019-05-07T13:12:55.884Z,31.93
2019-05-07T13:15:28.089Z,32.74
2019-05-07T13:17:58.165Z,32.55
2019-05-07T13:20:29.468Z,32.33
2019-05-07T13:23:00.097Z,31.78
2019-05-07T13:25:32.275Z,32.00
2019-05-07T13:28:02.704Z,30.02
2019-05-07T13:30:33.303Z,29.64
2019-05-07T13:33:05.409Z,28.90
2019-05-07T13:35:36.114Z,29.80
2019-05-07T13:38:32.329Z,29.18
2019-05-07T13:41:31.535Z,30.01
2019-05-07T13:44:22.727Z,29.17
2019-05-07T13:47:12.534Z,30.17
2019-05-07T13:49:42.893Z,30.03
2019-05-07T13:52:13.303Z,29.66
2019-05-07T13:54:44.094Z,29.99
2019-05-07T13:57:15.586Z,29.70
2019-05-07T13:59:46.269Z,31.40
2019-05-07T14:02:18.602Z,32.03
2019-05-07T14:04:49.206Z,33.21
2019-05-07T14:07:23.239Z,33.67
2019-05-07T14:09:54.493Z,32.59
2019-05-07T14:12:24.998Z,33.53
2019-05-07T14:14:55.749Z,33.34
2019-05-07T14:17:25.973Z,34.02
2019-05-07T14:19:56.329Z,33.58
2019-05-07T14:22:26.658Z,30.21
2019-05-07T14:24:58.830Z,28.63
2019-05-07T14:27:29.161Z,27.74
2019-05-07T14:30:02.777Z,26.90
2019-05-07T14:32:43.069Z,25.96
2019-05-07T14:35:32.520Z,28.52
2019-05-07T14:38:13.634Z,29.48
2019-05-07T14:40:42.669Z,30.19
2019-05-07T14:43:19.357Z,28.20
2019-05-07T14:45:52.196Z,28.22
2019-05-07T14:48:22.683Z,28.21
2019-05-07T14:50:53.195Z,28.02
2019-05-07T14:53:23.750Z,27.28
2019-05-07T14:55:55.004Z,27.85
2019-05-07T14:58:25.484Z,27.48
2019-05-07T15:00:55.690Z,26.94
2019-05-07T15:03:27.264Z,27.18
2019-05-07T15:05:57.483Z,26.66
2019-05-07T15:08:27.815Z,25.48
2019-05-07T15:10:58.114Z,24.86
2019-05-07T15:13:28.906Z,24.37
2019-05-07T15:15:59.761Z,24.11
2019-05-07T15:18:48.550Z,24.24
2019-05-07T15:21:18.900Z,24.32
2019-05-07T15:23:49.818Z,24.22
2019-05-07T15:26:22.050Z,22.97
2019-05-07T15:29:01.047Z,24.10
2019-05-07T15:31:48.911Z,23.99
2019-05-07T15:34:19.641Z,23.85
2019-05-07T15:36:49.865Z,23.79
2019-05-07T15:39:22.283Z,23.76
2019-05-07T15:41:52.987Z,23.30
2019-05-07T15:44:23.754Z,23.15
2019-05-07T15:46:55.934Z,23.32
2019-05-07T15:49:26.706Z,23.03
2019-05-07T15:51:59.225Z,22.24
2019-05-07T15:54:29.814Z,21.53
2019-05-07T15:57:03.323Z,21.67
2019-05-07T15:59:33.540Z,21.83
2019-05-07T16:02:12.335Z,21.91
2019-05-07T16:04:42.972Z,21.78
2019-05-07T16:07:13.562Z,21.63
2019-05-07T16:09:44.110Z,21.46
2019-05-07T16:12:17.602Z,21.79
2019-05-07T16:14:47.925Z,21.45
2019-05-07T16:17:29.442Z,21.25
2019-05-07T16:20:00.082Z,21.19
2019-05-07T16:22:35.681Z,21.30
2019-05-07T16:25:07.414Z,21.07
2019-05-07T16:27:44.814Z,20.96
2019-05-07T16:30:15.422Z,21.26
2019-05-07T16:32:45.651Z,21.49
2019-05-07T16:35:16.428Z,21.82
2019-05-07T16:37:46.853Z,21.91
2019-05-07T16:40:17.549Z,21.85
2019-05-07T16:42:47.768Z,21.64
2019-05-07T16:45:18.612Z,22.02
2019-05-07T16:47:48.840Z,21.72
2019-05-07T16:50:22.172Z,21.74
2019-05-07T16:52:52.442Z,21.55
2019-05-07T16:55:25.645Z,21.85
2019-05-07T16:58:12.835Z,21.66
2019-05-07T17:00:46.283Z,21.07
2019-05-07T17:03:21.154Z,21.39
2019-05-07T17:05:52.425Z,21.31
2019-05-07T17:08:51.661Z,21.04
2019-05-07T17:11:22.602Z,19.76
2019-05-07T17:13:53.051Z,19.76
2019-05-07T17:16:23.472Z,19.40
2019-05-07T17:18:54.092Z,19.04
2019-05-07T17:21:25.255Z,18.84
2019-05-07T17:23:55.526Z,18.59
2019-05-07T17:26:26.173Z,18.24
2019-05-07T17:28:56.472Z,18.00
2019-05-07T17:31:26.803Z,17.78
2019-05-07T17:33:57.216Z,17.80
2019-05-07T17:36:27.630Z,17.67
2019-05-07T17:38:57.930Z,17.62
2019-05-07T17:41:28.304Z,17.86
2019-05-07T17:43:58.977Z,17.92
2019-05-07T17:46:29.588Z,18.00
2019-05-07T17:48:59.927Z,17.69
2019-05-07T17:51:52.454Z,17.68
2019-05-07T17:54:22.620Z,17.52
2019-05-07T17:56:52.974Z,17.23
2019-05-07T17:59:23.689Z,17.09
2019-05-07T18:02:32.689Z,16.91
2019-05-07T18:05:03.250Z,16.84
2019-05-07T18:07:36.804Z,16.27
2019-05-07T18:10:08.228Z,16.27
2019-05-07T18:12:39.737Z,16.06
2019-05-07T18:15:12.640Z,15.89
2019-05-07T18:17:48.022Z,15.78
2019-05-07T18:20:18.368Z,15.59
2019-05-07T18:22:48.670Z,15.50
2019-05-07T18:25:19.011Z,15.43
2019-05-07T18:27:49.310Z,15.27
2019-05-07T18:30:19.675Z,15.18
2019-05-07T18:32:55.764Z,15.10
2019-05-07T18:35:26.188Z,15.03
2019-05-07T18:37:56.522Z,14.90
2019-05-07T18:40:28.117Z,14.76
2019-05-07T18:42:58.412Z,14.67
2019-05-07T18:45:28.821Z,14.57
2019-05-07T18:47:59.925Z,14.52
2019-05-07T18:50:32.442Z,14.44
2019-05-07T18:53:02.841Z,14.40
2019-05-07T18:55:33.424Z,14.31
2019-05-07T18:58:03.810Z,14.26
2019-05-07T19:00:37.671Z,14.22
2019-05-07T19:03:08.529Z,14.15
2019-05-07T19:05:38.863Z,14.06
2019-05-07T19:08:09.388Z,14.00
2019-05-07T19:10:40.250Z,13.95
2019-05-07T19:13:10.763Z,13.89
2019-05-07T19:15:42.018Z,13.89
2019-05-07T19:18:13.971Z,13.86
2019-05-07T19:20:44.362Z,13.89
2019-05-07T19:23:14.583Z,13.90
2019-05-07T19:25:44.858Z,13.83
2019-05-07T19:28:16.277Z,13.75
2019-05-07T19:30:47.046Z,13.76
2019-05-07T19:33:17.348Z,13.74
2019-05-07T19:35:47.972Z,13.75
2019-05-07T19:38:18.810Z,13.70
2019-05-07T19:40:50.186Z,13.60
2019-05-07T19:43:20.630Z,13.62
2019-05-07T19:45:52.338Z,13.66
2019-05-07T19:48:23.296Z,13.69
2019-05-07T19:50:54.140Z,13.70
2019-05-07T19:53:25.198Z,13.68
2019-05-07T19:56:08.186Z,13.61
2019-05-07T19:58:38.491Z,13.50
2019-05-07T20:01:12.133Z,13.41
2019-05-07T20:03:43.423Z,13.36
2019-05-07T20:06:14.103Z,13.32
2019-05-07T20:08:44.601Z,13.26
2019-05-07T20:11:33.869Z,13.27
2019-05-07T20:14:04.113Z,13.28
2019-05-07T20:16:34.865Z,13.26
2019-05-07T20:19:05.584Z,13.24
2019-05-07T20:21:36.035Z,13.20
2019-05-07T20:24:06.647Z,13.15
2019-05-07T20:26:37.416Z,13.10
2019-05-07T20:29:08.214Z,13.08
2019-05-07T20:31:38.621Z,13.05
2019-05-07T20:34:08.905Z,13.13
2019-05-07T20:36:39.415Z,13.07
2019-05-07T20:39:10.055Z,13.06
2019-05-07T20:41:40.358Z,13.01
2019-05-07T20:44:11.926Z,12.90
2019-05-07T20:46:43.427Z,12.84
2019-05-07T20:49:14.127Z,12.74
2019-05-07T20:51:44.736Z,12.70
2019-05-07T20:54:23.040Z,12.67
2019-05-07T20:57:02.423Z,12.65
2019-05-07T20:59:32.967Z,12.73
2019-05-07T21:02:03.595Z,12.70
2019-05-07T21:04:33.810Z,12.68
2019-05-07T21:07:04.497Z,12.67
2019-05-07T21:09:35.333Z,12.62
2019-05-07T21:12:05.551Z,12.58
2019-05-07T21:14:35.805Z,12.56
2019-05-07T21:17:06.263Z,12.54
2019-05-07T21:19:36.574Z,12.49
2019-05-07T21:22:07.152Z,12.54
2019-05-07T21:24:39.127Z,12.59
2019-05-07T21:27:12.031Z,12.57
2019-05-07T21:29:42.255Z,12.50
2019-05-07T21:32:13.724Z,12.54
2019-05-07T21:34:43.976Z,12.55
2019-05-07T21:37:14.219Z,12.71
2019-05-07T21:39:44.429Z,12.72
2019-05-07T21:42:15.884Z,12.74
2019-05-07T21:44:47.364Z,12.76
2019-05-07T21:47:17.663Z,12.80
2019-05-07T21:49:48.447Z,12.83
2019-05-07T21:52:18.745Z,12.90
2019-05-07T21:55:02.458Z,12.96
2019-05-07T21:57:40.685Z,12.97
2019-05-07T22:00:32.352Z,12.98
2019-05-07T22:03:08.978Z,12.92
2019-05-07T22:05:44.094Z,12.75
2019-05-07T22:08:12.551Z,12.60
2019-05-07T22:10:42.890Z,12.54
2019-05-07T22:13:13.149Z,12.45
2019-05-07T22:15:43.788Z,12.41
2019-05-07T22:18:14.327Z,12.30
2019-05-07T22:20:44.577Z,12.20
2019-05-07T22:23:15.155Z,12.19
2019-05-07T22:25:45.436Z,12.27
2019-05-07T22:28:15.821Z,12.31
2019-05-07T22:31:06.103Z,12.46
2019-05-07T22:33:44.071Z,12.52
2019-05-07T22:36:14.376Z,12.51
2019-05-07T22:38:49.140Z,12.57
2019-05-07T22:41:22.431Z,12.57
2019-05-07T22:43:54.001Z,12.59
2019-05-07T22:46:24.273Z,12.63
2019-05-07T22:48:54.554Z,12.78
2019-05-07T22:51:24.841Z,12.72
2019-05-07T22:53:55.100Z,12.61
2019-05-07T22:56:35.144Z,12.54
2019-05-07T22:58:59.023Z,12.43
2019-05-07T23:01:29.310Z,12.45
2019-05-07T23:03:59.578Z,12.41
2019-05-07T23:06:29.856Z,12.37
2019-05-07T23:09:01.964Z,12.31
2019-05-07T23:11:33.951Z,12.26
2019-05-07T23:14:04.276Z,12.20
2019-05-07T23:16:35.550Z,12.13
2019-05-07T23:19:05.836Z,12.01
2019-05-07T23:21:38.202Z,11.98
2019-05-07T23:24:08.427Z,11.91
2019-05-07T23:26:49.699Z,11.83
2019-05-07T23:29:11.862Z,11.84
2019-05-07T23:31:42.229Z,11.88
2019-05-07T23:34:12.767Z,11.79
2019-05-07T23:36:42.967Z,11.84
2019-05-07T23:39:15.028Z,11.93
2019-05-07T23:41:58.709Z,12.12
2019-05-07T23:44:29.262Z,12.28
2019-05-07T23:46:59.887Z,12.36
2019-05-07T23:49:32.104Z,12.38
2019-05-07T23:52:02.526Z,12.42
2019-05-07T23:54:33.527Z,12.38
2019-05-07T23:57:08.773Z,12.31
2019-05-07T23:59:36.122Z,12.31
